Time;durP1;ratioP1;P1;durP2;ratioP2;P2;SDS_P1;SDS_P2;PMS_P1;PMS_P2;Temp;Humidity;BMP_temperature;BMP_pressure;BME280_temperature;BME280_humidity;BME280_pressure;Samples;Min_cycle;Max_cycle;Signal;HPM_P1;HPM_P2
2023/08/31 00:00:43;;;;;;;3.45;1.95;;;14.30;99.90;;;;;;4945445;29;20500;-88
2023/08/31 00:03:12;;;;;;;2.72;1.60;;;14.30;99.90;;;;;;4950803;29;20030;-92
2023/08/31 00:05:41;;;;;;;5.55;2.05;;;14.30;99.90;;;;;;4951568;29;20400;-90
2023/08/31 00:08:08;;;;;;;3.28;2.03;;;14.30;99.90;;;;;;4947757;29;20396;-96
2023/08/31 00:10:36;;;;;;;3.33;2.00;;;14.30;99.90;;;;;;4955975;28;20035;-88
2023/08/31 00:13:06;;;;;;;1.70;1.45;;;14.30;99.90;;;;;;4952325;29;20059;-88
2023/08/31 00:15:35;;;;;;;3.03;1.70;;;14.30;99.90;;;;;;4950439;28;20544;-88
2023/08/31 00:18:00;;;;;;;2.53;1.92;;;14.30;99.90;;;;;;4954582;28;20437;-88
2023/08/31 00:20:26;;;;;;;4.13;2.00;;;14.30;99.90;;;;;;4950231;28;20027;-89
2023/08/31 00:22:52;;;;;;;1.88;1.60;;;14.30;99.90;;;;;;4950775;28;20368;-86
2023/08/31 00:25:18;;;;;;;4.13;2.00;;;14.30;99.90;;;;;;4950062;28;20122;-89
2023/08/31 00:27:48;;;;;;;6.10;2.20;;;14.30;99.90;;;;;;4951074;28;20094;-88
2023/08/31 00:30:15;;;;;;;2.55;1.88;;;14.30;99.90;;;;;;4950427;29;20035;-87
2023/08/31 00:32:42;;;;;;;3.40;1.80;;;14.30;99.90;;;;;;4951224;29;20038;-88
2023/08/31 00:35:09;;;;;;;2.95;2.05;;;14.30;99.90;;;;;;4934022;29;20028;-90
2023/08/31 00:37:35;;;;;;;3.00;2.20;;;14.30;99.90;;;;;;4951564;29;20389;-87
2023/08/31 00:40:01;;;;;;;4.47;1.98;;;14.30;99.90;;;;;;4951515;29;20031;-88
2023/08/31 00:42:29;;;;;;;8.18;2.38;;;14.30;99.90;;;;;;4950206;29;20032;-88
2023/08/31 00:44:55;;;;;;;7.65;4.03;;;14.30;99.90;;;;;;4948739;29;20050;-88
2023/08/31 00:47:20;;;;;;;7.85;3.58;;;14.30;99.90;;;;;;4948879;29;20027;-88
2023/08/31 00:49:47;;;;;;;11.43;4.57;;;14.20;99.90;;;;;;4949825;28;20029;-88
2023/08/31 00:52:13;;;;;;;9.38;4.97;;;14.20;99.90;;;;;;4952504;28;20031;-88
2023/08/31 00:54:39;;;;;;;22.45;6.38;;;14.20;99.90;;;;;;4951871;29;20044;-88
2023/08/31 00:57:04;;;;;;;11.43;4.72;;;14.10;99.90;;;;;;4956757;28;20101;-89
2023/08/31 00:59:30;;;;;;;11.98;4.72;;;14.20;99.90;;;;;;4951371;28;20047;-87
2023/08/31 01:02:07;;;;;;;10.95;4.78;;;14.10;99.90;;;;;;4951338;29;20035;-89
2023/08/31 01:04:33;;;;;;;10.95;4.57;;;14.10;99.90;;;;;;4951205;29;20264;-88
2023/08/31 01:07:36;;;;;;;7.82;4.78;;;14.00;99.90;;;;;;4947181;29;20392;-89
2023/08/31 01:10:19;;;;;;;10.05;4.85;;;14.00;99.90;;;;;;4950630;29;20039;-87
2023/08/31 01:12:52;;;;;;;9.05;4.63;;;13.90;99.90;;;;;;4950406;29;20023;-88
2023/08/31 01:15:18;;;;;;;21.00;5.75;;;13.80;99.90;;;;;;4950864;29;20031;-88
2023/08/31 01:17:55;;;;;;;8.73;5.00;;;13.70;99.90;;;;;;4950638;29;20053;-87
2023/08/31 01:20:42;;;;;;;11.52;5.22;;;13.70;99.90;;;;;;4950859;29;20477;-90
2023/08/31 01:23:16;;;;;;;16.70;5.15;;;13.70;99.90;;;;;;4950080;29;20041;-87
2023/08/31 01:25:43;;;;;;;14.30;4.63;;;13.70;99.90;;;;;;4950759;29;20122;-87
2023/08/31 01:28:10;;;;;;;9.63;4.80;;;13.80;99.90;;;;;;4950393;29;20444;-89
2023/08/31 01:30:35;;;;;;;7.95;4.75;;;13.70;99.90;;;;;;4950535;29;20042;-88
2023/08/31 01:33:02;;;;;;;10.88;4.88;;;13.80;99.90;;;;;;4950607;29;20031;-86
2023/08/31 01:35:37;;;;;;;17.10;4.50;;;13.70;99.90;;;;;;4951313;29;20030;-93
2023/08/31 01:38:08;;;;;;;10.05;5.10;;;13.80;99.90;;;;;;4943806;29;20038;-87
2023/08/31 01:41:00;;;;;;;12.25;4.30;;;13.80;99.90;;;;;;4950534;29;20516;-87
2023/08/31 01:43:27;;;;;;;7.85;3.63;;;13.80;99.90;;;;;;4949325;29;20058;-89
2023/08/31 01:45:53;;;;;;;6.55;4.07;;;13.70;99.90;;;;;;4956155;28;20046;-85
2023/08/31 01:48:19;;;;;;;8.95;3.92;;;13.70;99.90;;;;;;4947760;29;20031;-88
2023/08/31 01:50:44;;;;;;;6.45;3.58;;;13.80;99.90;;;;;;4949999;29;20646;-88
2023/08/31 01:53:10;;;;;;;5.72;3.70;;;13.80;99.90;;;;;;4950741;29;20036;-89
2023/08/31 01:55:36;;;;;;;6.40;2.88;;;13.80;99.90;;;;;;4949462;28;20035;-87
2023/08/31 01:58:02;;;;;;;6.90;3.90;;;13.80;99.90;;;;;;4947856;28;20260;-88
2023/08/31 02:00:28;;;;;;;6.47;3.88;;;13.90;99.90;;;;;;4948540;28;20036;-88
2023/08/31 02:02:53;;;;;;;10.73;4.00;;;13.90;99.90;;;;;;4949042;28;20074;-88
2023/08/31 02:05:19;;;;;;;6.68;3.50;;;13.90;99.90;;;;;;4948064;28;20099;-87
2023/08/31 02:07:44;;;;;;;4.93;3.00;;;13.90;99.90;;;;;;4949762;29;20023;-89
2023/08/31 02:10:10;;;;;;;7.80;3.78;;;13.80;99.90;;;;;;4949050;28;20035;-90
2023/08/31 02:12:36;;;;;;;7.95;4.20;;;13.90;99.90;;;;;;4948900;28;20026;-89
2023/08/31 02:15:04;;;;;;;8.07;3.70;;;13.90;99.90;;;;;;4949785;29;20058;-89
2023/08/31 02:17:30;;;;;;;13.30;3.58;;;13.90;99.90;;;;;;4949297;28;20127;-88
2023/08/31 02:19:57;;;;;;;6.72;3.10;;;13.80;99.90;;;;;;4949445;29;20118;-88
2023/08/31 02:22:23;;;;;;;7.53;3.60;;;13.80;99.90;;;;;;4950491;29;20430;-91
2023/08/31 02:24:49;;;;;;;5.10;3.40;;;13.80;99.90;;;;;;4943398;29;20130;-89
2023/08/31 02:27:14;;;;;;;7.32;3.42;;;13.70;99.90;;;;;;4948816;28;20035;-88
2023/08/31 02:29:40;;;;;;;6.45;3.00;;;13.80;99.90;;;;;;4947549;28;20106;-90
2023/08/31 02:32:06;;;;;;;4.57;2.67;;;13.80;99.90;;;;;;4949841;28;20023;-88
2023/08/31 02:34:31;;;;;;;8.48;3.20;;;13.80;99.90;;;;;;4947825;28;20034;-88
2023/08/31 02:36:57;;;;;;;4.40;2.65;;;13.70;99.90;;;;;;4947646;28;20114;-88
2023/08/31 02:39:23;;;;;;;9.73;3.53;;;13.70;99.90;;;;;;4936425;28;20461;-90
2023/08/31 02:41:48;;;;;;;8.13;2.92;;;13.80;99.90;;;;;;4947291;28;20507;-90
2023/08/31 02:44:14;;;;;;;11.15;3.13;;;13.80;99.90;;;;;;4948625;28;20248;-88
2023/08/31 02:46:40;;;;;;;4.78;2.47;;;13.80;99.90;;;;;;4945885;28;20054;-90
2023/08/31 02:49:05;;;;;;;3.97;2.05;;;13.70;99.90;;;;;;4946445;29;20027;-88
2023/08/31 02:51:31;;;;;;;5.82;2.55;;;13.80;99.90;;;;;;4945330;28;20046;-89
2023/08/31 02:53:58;;;;;;;2.60;2.22;;;13.70;99.90;;;;;;4946574;28;20386;-89
2023/08/31 02:56:23;;;;;;;5.38;2.55;;;13.70;99.90;;;;;;4943960;28;20051;-88
2023/08/31 02:58:49;;;;;;;6.97;2.90;;;13.70;99.90;;;;;;4945658;28;20126;-87
2023/08/31 03:01:15;;;;;;;3.40;2.50;;;13.70;99.90;;;;;;4946923;28;20027;-87
2023/08/31 03:03:42;;;;;;;5.70;2.60;;;13.70;99.90;;;;;;4942797;28;20502;-86
2023/08/31 03:06:09;;;;;;;6.22;2.92;;;13.70;99.90;;;;;;4943497;29;20504;-90
2023/08/31 03:08:37;;;;;;;10.90;3.72;;;13.70;99.90;;;;;;4945187;28;20023;-88
2023/08/31 03:11:04;;;;;;;6.20;2.95;;;13.70;99.90;;;;;;4943920;29;20470;-88
2023/08/31 03:13:31;;;;;;;5.90;2.75;;;13.70;99.90;;;;;;4946012;28;20037;-91
2023/08/31 03:15:57;;;;;;;9.98;2.88;;;13.70;99.90;;;;;;4944687;28;20035;-87
2023/08/31 03:18:24;;;;;;;11.52;3.42;;;13.70;99.90;;;;;;4941411;29;20023;-89
2023/08/31 03:20:50;;;;;;;9.75;3.80;;;13.60;99.90;;;;;;4945269;29;20023;-90
2023/08/31 03:23:16;;;;;;;8.32;3.60;;;13.60;99.90;;;;;;4942301;29;20046;-89
2023/08/31 03:25:41;;;;;;;6.85;3.40;;;13.60;99.90;;;;;;4946430;29;20126;-84
2023/08/31 03:28:08;;;;;;;9.35;3.67;;;13.60;99.90;;;;;;4946510;29;20024;-88
2023/08/31 03:30:33;;;;;;;22.88;5.80;;;13.60;99.90;;;;;;4943645;28;20034;-88
2023/08/31 03:32:59;;;;;;;9.23;3.13;;;13.60;99.90;;;;;;4943405;28;20032;-89
2023/08/31 03:35:28;;;;;;;11.70;3.25;;;13.60;99.90;;;;;;4942247;29;20523;-92
2023/08/31 03:37:55;;;;;;;9.27;3.03;;;13.50;99.90;;;;;;4941811;29;20539;-90
2023/08/31 03:40:21;;;;;;;5.70;3.40;;;13.50;99.90;;;;;;4945111;28;20388;-87
2023/08/31 03:42:56;;;;;;;12.10;3.20;;;13.50;99.90;;;;;;4943271;29;20135;-87
2023/08/31 03:45:22;;;;;;;6.70;3.17;;;13.40;99.90;;;;;;4943128;28;20364;-88
2023/08/31 03:47:50;;;;;;;11.00;3.85;;;13.40;99.90;;;;;;4946629;28;20031;-92
2023/08/31 03:50:19;;;;;;;10.68;3.20;;;13.40;99.90;;;;;;4946585;29;20027;-88
2023/08/31 03:52:44;;;;;;;7.72;3.08;;;13.40;99.90;;;;;;4944671;29;20111;-90
2023/08/31 03:55:10;;;;;;;8.70;3.28;;;13.40;99.90;;;;;;4942949;28;20357;-89
2023/08/31 03:57:43;;;;;;;11.60;4.55;;;13.40;99.90;;;;;;4942071;28;20051;-88
2023/08/31 04:00:10;;;;;;;11.73;4.00;;;13.30;99.90;;;;;;4948450;28;20527;-87
2023/08/31 04:02:36;;;;;;;7.03;3.85;;;13.30;99.90;;;;;;4942623;28;20031;-88
2023/08/31 04:05:05;;;;;;;18.15;4.00;;;13.30;99.90;;;;;;4938902;29;20568;-88
2023/08/31 04:07:32;;;;;;;12.10;3.83;;;13.20;99.90;;;;;;4942865;28;20461;-89
2023/08/31 04:10:00;;;;;;;7.68;3.70;;;13.20;99.90;;;;;;4944986;28;20534;-88
2023/08/31 04:12:26;;;;;;;11.32;3.45;;;13.20;99.90;;;;;;4943444;28;20035;-88
2023/08/31 04:14:52;;;;;;;10.27;3.88;;;13.20;99.90;;;;;;4946628;29;20113;-88
2023/08/31 04:17:18;;;;;;;6.15;3.35;;;13.20;99.90;;;;;;4945622;29;20028;-89
2023/08/31 04:19:43;;;;;;;10.65;3.78;;;13.20;99.90;;;;;;4944554;28;20023;-87
2023/08/31 04:22:09;;;;;;;10.73;3.25;;;13.10;99.90;;;;;;4941769;28;20403;-89
2023/08/31 04:24:37;;;;;;;9.45;3.33;;;13.10;99.90;;;;;;4944888;28;20040;-89
2023/08/31 04:27:03;;;;;;;11.27;3.70;;;13.10;99.90;;;;;;4945138;28;20027;-89
2023/08/31 04:29:29;;;;;;;6.40;3.25;;;13.10;99.90;;;;;;4942933;29;20358;-90
2023/08/31 04:32:03;;;;;;;18.50;3.72;;;13.10;99.90;;;;;;4942879;29;20034;-88
2023/08/31 04:34:32;;;;;;;3.78;2.63;;;13.10;99.90;;;;;;4941883;28;20433;-88
2023/08/31 04:37:00;;;;;;;5.30;2.40;;;13.10;99.90;;;;;;4945552;28;20027;-91
2023/08/31 04:39:28;;;;;;;7.80;2.83;;;13.10;99.90;;;;;;4931176;29;20047;-88
2023/08/31 04:41:53;;;;;;;8.15;3.05;;;13.10;99.90;;;;;;4947276;28;20119;-90
2023/08/31 04:44:19;;;;;;;7.30;3.22;;;13.10;99.90;;;;;;4946898;29;20102;-88
2023/08/31 04:46:45;;;;;;;8.75;3.17;;;13.10;99.90;;;;;;4944773;29;20675;-87
2023/08/31 04:49:11;;;;;;;6.07;2.47;;;13.10;99.90;;;;;;4944888;28;20031;-88
2023/08/31 04:51:39;;;;;;;7.82;3.08;;;13.10;99.90;;;;;;4946691;28;20037;-89
2023/08/31 04:54:04;;;;;;;4.70;2.53;;;13.10;99.90;;;;;;4949052;29;20402;-87
2023/08/31 04:56:34;;;;;;;9.40;3.03;;;13.10;99.90;;;;;;4947873;28;20066;-87
2023/08/31 04:59:00;;;;;;;4.15;2.25;;;13.10;99.90;;;;;;4946195;28;20142;-87
2023/08/31 05:01:26;;;;;;;4.85;2.67;;;13.10;99.90;;;;;;4943441;28;20043;-87
2023/08/31 05:03:52;;;;;;;8.43;3.47;;;13.10;99.90;;;;;;4947041;28;20074;-87
2023/08/31 05:06:18;;;;;;;3.83;2.10;;;13.10;99.90;;;;;;4948204;29;20039;-94
2023/08/31 05:08:43;;;;;;;2.60;1.73;;;13.10;99.90;;;;;;4950022;28;20043;-88
2023/08/31 05:11:09;;;;;;;3.95;2.28;;;13.10;99.90;;;;;;4948851;28;20453;-89
2023/08/31 05:13:35;;;;;;;5.97;1.92;;;13.10;99.90;;;;;;4948153;28;20027;-87
2023/08/31 05:16:00;;;;;;;3.45;2.05;;;13.10;99.90;;;;;;4931354;29;20027;-87
2023/08/31 05:18:26;;;;;;;5.63;2.70;;;13.00;99.90;;;;;;4947604;29;20027;-87
2023/08/31 05:20:51;;;;;;;5.88;2.25;;;13.00;99.90;;;;;;4949500;29;20234;-87
2023/08/31 05:23:17;;;;;;;4.65;2.90;;;13.00;99.90;;;;;;4949122;29;20023;-88
2023/08/31 05:25:43;;;;;;;4.47;2.30;;;12.90;99.90;;;;;;4947865;28;21135;-86
2023/08/31 05:28:09;;;;;;;4.65;2.03;;;12.90;99.90;;;;;;4948956;29;20038;-89
2023/08/31 05:30:35;;;;;;;5.93;2.78;;;12.80;99.90;;;;;;4945151;28;20035;-87
2023/08/31 05:33:04;;;;;;;7.70;2.30;;;12.80;99.90;;;;;;4948618;29;20117;-86
2023/08/31 05:35:30;;;;;;;4.60;2.22;;;12.80;99.90;;;;;;4948230;29;20046;-88
2023/08/31 05:37:56;;;;;;;8.98;2.70;;;12.80;99.90;;;;;;4948598;29;20035;-88
2023/08/31 05:40:21;;;;;;;3.65;2.90;;;12.80;99.90;;;;;;4946801;28;20433;-88
2023/08/31 05:42:48;;;;;;;17.40;4.15;;;12.80;99.90;;;;;;4943738;29;20046;-93
2023/08/31 05:45:14;;;;;;;6.90;3.42;;;12.90;99.90;;;;;;4946199;29;20075;-86
2023/08/31 05:47:41;;;;;;;5.43;2.55;;;12.90;99.90;;;;;;4945742;28;20035;-89
2023/08/31 05:50:07;;;;;;;7.72;2.78;;;12.90;99.90;;;;;;4946571;29;20486;-88
2023/08/31 05:52:33;;;;;;;10.45;4.32;;;13.00;99.90;;;;;;4946575;29;20438;-86
2023/08/31 05:54:58;;;;;;;7.10;2.85;;;13.00;99.90;;;;;;4947094;29;20062;-88
2023/08/31 05:57:25;;;;;;;5.22;3.00;;;13.10;99.90;;;;;;4946506;29;20134;-91
2023/08/31 05:59:51;;;;;;;6.80;2.80;;;13.10;99.90;;;;;;4944341;29;20058;-87
2023/08/31 06:02:16;;;;;;;9.30;2.92;;;13.20;99.90;;;;;;4948543;28;20027;-89
2023/08/31 06:04:42;;;;;;;5.97;2.92;;;13.20;99.90;;;;;;4948157;29;20232;-87
2023/08/31 06:07:07;;;;;;;6.60;2.33;;;13.30;99.90;;;;;;4948682;28;20075;-89
2023/08/31 06:09:33;;;;;;;8.73;2.88;;;13.40;99.90;;;;;;4946338;29;20035;-87
2023/08/31 06:11:59;;;;;;;7.95;3.00;;;13.40;99.90;;;;;;4942710;28;20030;-85
2023/08/31 06:14:25;;;;;;;8.00;2.45;;;13.50;99.90;;;;;;4947581;29;20034;-93
2023/08/31 06:16:52;;;;;;;8.48;2.85;;;13.50;99.90;;;;;;4947662;28;20090;-87
2023/08/31 06:19:19;;;;;;;9.88;2.97;;;13.60;99.90;;;;;;4948340;29;20027;-93
2023/08/31 06:21:44;;;;;;;13.20;4.05;;;13.60;99.90;;;;;;4947509;29;20150;-87
2023/08/31 06:24:12;;;;;;;10.70;2.80;;;13.70;99.90;;;;;;4943017;29;20066;-91
2023/08/31 06:26:41;;;;;;;9.00;2.80;;;13.80;99.90;;;;;;4946398;28;20034;-96
2023/08/31 06:29:10;;;;;;;7.40;1.95;;;13.70;99.90;;;;;;4941057;29;20015;-87
2023/08/31 06:31:36;;;;;;;9.55;1.70;;;13.70;99.90;;;;;;4946067;29;20031;-87
2023/08/31 06:34:02;;;;;;;2.05;1.40;;;13.60;99.90;;;;;;4945093;28;20486;-84
2023/08/31 06:36:28;;;;;;;3.38;1.25;;;13.40;99.90;;;;;;4944891;29;20011;-83
2023/08/31 06:38:53;;;;;;;1.70;1.35;;;13.20;99.90;;;;;;4940807;28;20028;-93
2023/08/31 06:41:19;;;;;;;2.03;1.50;;;12.90;99.90;;;;;;4946498;28;20553;-92
2023/08/31 06:43:45;;;;;;;5.30;1.27;;;12.80;99.90;;;;;;4946067;29;20303;-93
2023/08/31 06:46:11;;;;;;;6.78;2.17;;;12.60;99.90;;;;;;4945383;29;20086;-87
2023/08/31 06:48:37;;;;;;;3.45;1.50;;;12.50;99.90;;;;;;4944493;28;20031;-86
2023/08/31 06:51:03;;;;;;;3.30;1.95;;;12.30;99.90;;;;;;4944917;29;20042;-89
2023/08/31 06:53:31;;;;;;;3.75;1.95;;;12.30;99.90;;;;;;4944640;29;20482;-84
2023/08/31 06:55:58;;;;;;;2.97;1.60;;;12.20;99.90;;;;;;4945029;29;20029;-85
2023/08/31 06:58:26;;;;;;;2.30;2.00;;;12.10;99.90;;;;;;4945571;28;20035;-86
2023/08/31 07:00:54;;;;;;;4.55;2.63;;;12.10;99.90;;;;;;4944457;28;20035;-89
2023/08/31 07:03:20;;;;;;;2.33;1.95;;;12.10;99.90;;;;;;4928746;29;20118;-88
2023/08/31 07:05:46;;;;;;;5.43;1.95;;;12.10;99.90;;;;;;4945239;29;20508;-88
2023/08/31 07:08:11;;;;;;;3.35;1.80;;;12.10;99.90;;;;;;4943780;29;20039;-84
2023/08/31 07:10:37;;;;;;;5.38;2.08;;;12.10;99.90;;;;;;4945661;29;20031;-89
2023/08/31 07:13:04;;;;;;;6.35;2.10;;;12.10;99.90;;;;;;4945499;28;20167;-94
2023/08/31 07:15:30;;;;;;;5.13;1.88;;;12.10;99.90;;;;;;4945460;29;20039;-89
2023/08/31 07:17:56;;;;;;;4.07;2.13;;;12.20;99.90;;;;;;4946848;29;20477;-88
2023/08/31 07:20:23;;;;;;;5.57;2.92;;;12.20;99.90;;;;;;4946895;28;20042;-88
2023/08/31 07:22:48;;;;;;;4.97;2.33;;;12.30;99.90;;;;;;4947672;29;20039;-88
2023/08/31 07:25:17;;;;;;;8.43;3.03;;;12.30;99.90;;;;;;4946581;29;20049;-87
2023/08/31 07:27:43;;;;;;;5.13;2.45;;;12.30;99.90;;;;;;4946760;28;20027;-88
2023/08/31 07:30:10;;;;;;;3.13;2.17;;;12.40;99.90;;;;;;4947323;29;20034;-95
2023/08/31 07:32:35;;;;;;;3.95;2.88;;;12.50;99.90;;;;;;4946711;29;20030;-89
2023/08/31 07:35:02;;;;;;;4.13;2.90;;;12.60;99.90;;;;;;4947023;28;20032;-91
2023/08/31 07:37:28;;;;;;;8.32;3.42;;;12.70;99.90;;;;;;4945867;29;20028;-88
2023/08/31 07:39:54;;;;;;;2.75;2.20;;;12.70;99.90;;;;;;4946920;28;20078;-90
2023/08/31 07:42:19;;;;;;;5.75;2.42;;;12.80;99.90;;;;;;4947245;28;20039;-89
2023/08/31 07:44:47;;;;;;;5.97;3.13;;;12.90;99.90;;;;;;4946006;29;20043;-90
2023/08/31 07:47:13;;;;;;;6.25;4.32;;;13.00;99.90;;;;;;4945337;29;20027;-93
2023/08/31 07:49:39;;;;;;;8.73;3.97;;;13.10;99.90;;;;;;4945234;28;20039;-92
2023/08/31 07:52:04;;;;;;;8.60;3.92;;;13.20;99.90;;;;;;4944134;28;20485;-91
2023/08/31 07:54:30;;;;;;;9.10;4.68;;;13.20;99.90;;;;;;4944534;29;20473;-88
2023/08/31 07:56:56;;;;;;;7.28;4.28;;;13.40;99.90;;;;;;4946428;28;20024;-85
2023/08/31 07:59:21;;;;;;;5.47;4.38;;;13.50;99.90;;;;;;4944682;29;20055;-90
2023/08/31 08:01:47;;;;;;;12.05;4.72;;;13.70;99.90;;;;;;4944052;29;20380;-89
2023/08/31 08:04:13;;;;;;;13.90;5.25;;;13.80;99.90;;;;;;4945336;29;20038;-93
2023/08/31 08:06:39;;;;;;;10.00;5.93;;;13.80;99.90;;;;;;4947045;29;20035;-91
2023/08/31 08:09:05;;;;;;;6.85;4.15;;;13.90;99.90;;;;;;4946803;28;20032;-90
2023/08/31 08:11:31;;;;;;;13.52;4.90;;;13.90;99.90;;;;;;4948634;28;20031;-90
2023/08/31 08:13:58;;;;;;;11.30;6.00;;;13.90;99.90;;;;;;4950671;29;20038;-85
2023/08/31 08:16:25;;;;;;;8.98;5.95;;;13.80;99.90;;;;;;4949738;28;20047;-89
2023/08/31 08:18:51;;;;;;;11.95;6.18;;;13.80;99.90;;;;;;4951054;29;20536;-91
2023/08/31 08:21:16;;;;;;;8.32;6.05;;;13.80;99.90;;;;;;4950148;28;20082;-88
2023/08/31 08:23:42;;;;;;;12.68;6.10;;;13.80;99.90;;;;;;4949582;29;20023;-89
2023/08/31 08:26:07;;;;;;;11.20;5.10;;;13.80;99.90;;;;;;4932991;28;20035;-94
2023/08/31 08:28:33;;;;;;;6.70;4.60;;;13.90;99.90;;;;;;4949736;29;20062;-86
2023/08/31 08:31:05;;;;;;;9.88;4.30;;;14.00;99.90;;;;;;4950673;29;20031;-90
2023/08/31 08:33:31;;;;;;;11.65;4.50;;;14.10;99.90;;;;;;4949179;28;20034;-87
2023/08/31 08:35:57;;;;;;;8.77;3.42;;;14.10;99.90;;;;;;4944941;28;20102;-94
2023/08/31 08:38:23;;;;;;;9.80;4.10;;;14.10;99.90;;;;;;4947056;28;20114;-82
2023/08/31 08:40:48;;;;;;;9.98;5.13;;;14.20;99.90;;;;;;4946250;28;20477;-85
2023/08/31 08:43:14;;;;;;;16.38;4.13;;;14.40;99.90;;;;;;4931187;29;20336;-89
2023/08/31 08:45:42;;;;;;;6.80;3.83;;;14.40;99.90;;;;;;4945358;28;20038;-87
2023/08/31 08:48:10;;;;;;;10.80;3.80;;;14.40;99.90;;;;;;4947014;28;20089;-94
2023/08/31 08:50:38;;;;;;;10.15;3.88;;;14.40;99.90;;;;;;4948511;28;20049;-87
2023/08/31 08:53:05;;;;;;;10.40;3.80;;;14.40;99.90;;;;;;4942633;28;20031;-92
2023/08/31 08:55:31;;;;;;;16.70;4.75;;;14.30;99.90;;;;;;4943498;28;20409;-88
2023/08/31 08:58:03;;;;;;;9.00;4.50;;;14.30;99.90;;;;;;4945841;28;20473;-85
2023/08/31 09:00:29;;;;;;;7.07;4.03;;;14.30;99.90;;;;;;4951051;28;20044;-92
2023/08/31 09:02:56;;;;;;;9.00;4.78;;;14.30;99.90;;;;;;4945889;28;20031;-92
2023/08/31 09:05:22;;;;;;;15.23;4.13;;;14.30;99.90;;;;;;4950954;28;20375;-90
2023/08/31 09:08:12;;;;;;;8.63;3.83;;;14.30;99.90;;;;;;4951465;29;20031;-88
2023/08/31 09:10:43;;;;;;;8.15;4.32;;;14.30;99.90;;;;;;4951837;28;20477;-88
2023/08/31 09:13:15;;;;;;;10.95;4.10;;;14.50;99.90;;;;;;4950706;29;20564;-92
2023/08/31 09:15:46;;;;;;;6.85;2.72;;;14.60;99.90;;;;;;4951186;28;20039;-93
2023/08/31 09:18:23;;;;;;;3.67;2.63;;;14.70;99.90;;;;;;4947941;28;20027;-87
2023/08/31 09:20:49;;;;;;;4.22;2.40;;;14.70;99.90;;;;;;4949497;28;20050;-93
2023/08/31 09:23:18;;;;;;;5.90;2.72;;;14.70;99.90;;;;;;4946174;28;20031;-90
2023/08/31 09:25:50;;;;;;;4.70;2.53;;;14.70;99.90;;;;;;4950613;29;20078;-91
2023/08/31 09:28:19;;;;;;;6.07;2.70;;;14.50;99.90;;;;;;4933183;29;20030;-91
2023/08/31 09:30:51;;;;;;;5.63;2.50;;;14.40;99.90;;;;;;4951580;29;20491;-93
2023/08/31 09:33:18;;;;;;;4.60;2.42;;;14.30;99.90;;;;;;4949308;29;20035;-95
2023/08/31 09:35:59;;;;;;;3.47;2.60;;;14.30;99.90;;;;;;4949317;28;20261;-93
2023/08/31 09:38:28;;;;;;;8.90;3.03;;;14.30;99.90;;;;;;4944297;28;20142;-94
2023/08/31 09:41:06;;;;;;;8.63;2.88;;;14.50;99.90;;;;;;4950415;28;20028;-95
2023/08/31 09:43:32;;;;;;;7.95;2.40;;;14.60;99.90;;;;;;4949132;28;20031;-94
2023/08/31 09:46:02;;;;;;;8.15;3.30;;;14.60;99.90;;;;;;4949422;29;20541;-89
2023/08/31 09:48:31;;;;;;;9.32;3.40;;;14.80;99.90;;;;;;4951852;29;20027;-91
2023/08/31 09:50:57;;;;;;;6.35;2.75;;;14.90;99.90;;;;;;4950633;28;20472;-94
2023/08/31 09:53:35;;;;;;;10.25;3.55;;;15.00;99.90;;;;;;4949316;28;20482;-94
2023/08/31 09:56:04;;;;;;;7.00;2.97;;;15.00;99.90;;;;;;4949069;29;20031;-91
2023/08/31 09:58:31;;;;;;;6.15;3.00;;;15.00;99.90;;;;;;4948245;28;20082;-88
2023/08/31 10:01:00;;;;;;;4.22;2.50;;;15.00;99.90;;;;;;4930167;29;20568;-90
2023/08/31 10:03:28;;;;;;;7.60;2.63;;;15.00;99.90;;;;;;4946280;28;20394;-88
2023/08/31 10:05:55;;;;;;;7.32;2.75;;;15.00;99.90;;;;;;4948606;29;20047;-94
2023/08/31 10:08:21;;;;;;;7.07;2.55;;;15.10;99.90;;;;;;4948172;28;20038;-93
2023/08/31 10:10:47;;;;;;;5.07;2.60;;;15.10;99.90;;;;;;4927480;28;20031;-89
2023/08/31 10:13:15;;;;;;;3.13;2.45;;;15.20;99.90;;;;;;4947095;28;20027;-91
2023/08/31 10:15:42;;;;;;;6.57;2.47;;;15.10;99.90;;;;;;4946521;29;20027;-94
2023/08/31 10:18:11;;;;;;;6.95;2.70;;;15.10;99.90;;;;;;4949030;29;20038;-94
2023/08/31 10:20:41;;;;;;;5.13;2.42;;;15.10;99.90;;;;;;4951074;29;20039;-87
2023/08/31 10:23:08;;;;;;;10.25;2.53;;;15.10;99.90;;;;;;4951369;29;20027;-94
2023/08/31 10:25:49;;;;;;;7.43;3.60;;;15.10;99.90;;;;;;4950672;29;20039;-92
2023/08/31 10:28:19;;;;;;;9.20;2.40;;;15.10;99.90;;;;;;4948740;29;20042;-87
2023/08/31 10:31:23;;;;;;;4.20;2.42;;;15.10;99.90;;;;;;4949993;29;20031;-90
2023/08/31 10:34:00;;;;;;;7.43;2.80;;;15.00;99.90;;;;;;4945911;28;20516;-85
2023/08/31 10:36:36;;;;;;;9.10;2.72;;;14.90;99.90;;;;;;4945331;28;20031;-95
2023/08/31 10:39:08;;;;;;;5.90;2.55;;;15.00;99.90;;;;;;4946599;28;20054;-96
2023/08/31 10:41:35;;;;;;;6.63;2.50;;;15.20;99.90;;;;;;4948074;29;20035;-94
2023/08/31 10:44:01;;;;;;;8.77;2.22;;;15.40;99.90;;;;;;4946068;29;20030;-91
2023/08/31 10:46:27;;;;;;;7.38;2.47;;;15.60;99.90;;;;;;4945840;29;20122;-87
2023/08/31 10:49:00;;;;;;;2.85;1.50;;;15.80;99.90;;;;;;4945510;28;20453;-91
2023/08/31 10:51:30;;;;;;;3.25;1.67;;;16.00;99.90;;;;;;4945830;29;20034;-95
2023/08/31 10:54:10;;;;;;;3.13;1.73;;;16.20;99.90;;;;;;4947822;29;20039;-85
2023/08/31 10:57:00;;;;;;;1.67;1.30;;;16.20;99.90;;;;;;4945444;29;20051;-89
2023/08/31 10:59:40;;;;;;;4.43;2.17;;;16.20;99.90;;;;;;4946779;28;20043;-94
2023/08/31 11:02:07;;;;;;;1.95;1.60;;;16.10;99.90;;;;;;4946511;29;20444;-92
2023/08/31 11:04:53;;;;;;;8.73;2.05;;;16.00;99.90;;;;;;4945734;29;20078;-92
2023/08/31 11:07:23;;;;;;;3.30;1.55;;;16.10;99.90;;;;;;4948612;29;20031;-95
2023/08/31 11:09:49;;;;;;;5.95;2.33;;;16.10;99.90;;;;;;4951297;28;20493;-93
2023/08/31 11:12:15;;;;;;;8.10;1.98;;;16.20;99.90;;;;;;4943114;29;20023;-93
2023/08/31 11:14:41;;;;;;;3.90;1.77;;;16.20;99.90;;;;;;4944876;28;20023;-93
2023/08/31 11:17:08;;;;;;;4.80;1.95;;;16.20;99.90;;;;;;4945261;29;20023;-91
2023/08/31 11:19:36;;;;;;;6.13;2.20;;;16.10;99.90;;;;;;4945540;28;20031;-90
2023/08/31 11:22:02;;;;;;;7.68;2.00;;;16.10;99.90;;;;;;4940773;28;20020;-91
2023/08/31 11:24:32;;;;;;;6.38;2.10;;;16.00;99.90;;;;;;4946338;29;20045;-92
2023/08/31 11:27:03;;;;;;;3.05;1.67;;;16.10;99.90;;;;;;4939929;29;20051;-90
2023/08/31 11:29:29;;;;;;;3.78;1.95;;;16.00;99.90;;;;;;4942865;28;20082;-85
2023/08/31 11:32:04;;;;;;;4.47;1.85;;;16.00;99.90;;;;;;4945832;29;20027;-92
2023/08/31 11:34:30;;;;;;;6.57;1.90;;;15.90;99.90;;;;;;4939066;29;20035;-82
2023/08/31 11:36:55;;;;;;;3.72;1.67;;;15.90;99.90;;;;;;4943263;28;20033;-92
2023/08/31 11:39:23;;;;;;;1.92;1.20;;;15.80;99.90;;;;;;4946448;28;20027;-96
2023/08/31 11:41:49;;;;;;;1.55;1.35;;;15.80;99.90;;;;;;4945785;28;20411;-95
2023/08/31 11:44:16;;;;;;;4.60;2.00;;;15.70;99.90;;;;;;4947592;28;20493;-93
2023/08/31 11:46:45;;;;;;;5.20;1.85;;;15.60;99.90;;;;;;4948670;29;20035;-95
2023/08/31 11:49:11;;;;;;;4.97;1.67;;;15.50;99.90;;;;;;4948903;28;20481;-92
2023/08/31 11:51:40;;;;;;;4.53;2.40;;;15.50;99.90;;;;;;4946139;29;20027;-92
2023/08/31 11:54:06;;;;;;;5.05;2.00;;;15.40;99.90;;;;;;4943600;28;20481;-87
2023/08/31 11:56:42;;;;;;;2.53;2.05;;;15.30;99.90;;;;;;4948446;29;20074;-92
2023/08/31 11:59:12;;;;;;;6.18;2.47;;;15.20;99.90;;;;;;4951589;29;20128;-92
2023/08/31 12:01:42;;;;;;;5.53;2.30;;;15.10;99.90;;;;;;4949369;29;20050;-87
2023/08/31 12:04:11;;;;;;;4.35;1.92;;;15.00;99.90;;;;;;4930803;29;20032;-91
2023/08/31 12:06:37;;;;;;;4.78;1.63;;;14.80;99.90;;;;;;4950751;29;20615;-89
2023/08/31 12:09:13;;;;;;;4.65;2.00;;;14.50;99.90;;;;;;4951317;29;20035;-90
2023/08/31 12:11:39;;;;;;;4.15;1.55;;;14.20;99.90;;;;;;4943817;28;20031;-88
2023/08/31 12:14:41;;;;;;;2.95;1.50;;;14.10;99.90;;;;;;4948433;28;20024;-95
2023/08/31 12:17:09;;;;;;;2.85;1.38;;;14.00;99.90;;;;;;4927225;29;20032;-96
2023/08/31 12:19:41;;;;;;;3.63;1.90;;;13.90;99.90;;;;;;4942863;29;20059;-93
2023/08/31 12:22:12;;;;;;;4.13;1.25;;;13.90;99.90;;;;;;4949005;29;20019;-91
2023/08/31 12:24:40;;;;;;;2.72;1.77;;;13.90;99.90;;;;;;4932024;29;20043;-94
2023/08/31 12:27:06;;;;;;;8.95;2.28;;;13.90;99.90;;;;;;4948788;28;20028;-90
2023/08/31 12:29:32;;;;;;;5.13;1.73;;;13.80;99.90;;;;;;4928808;29;20032;-91
2023/08/31 12:31:59;;;;;;;5.97;1.92;;;13.80;99.90;;;;;;4948709;29;20027;-84
2023/08/31 12:34:26;;;;;;;5.28;1.48;;;13.70;99.90;;;;;;4945159;28;20097;-83
2023/08/31 12:36:52;;;;;;;3.50;1.88;;;13.50;99.90;;;;;;4948668;29;20086;-85
2023/08/31 12:39:18;;;;;;;2.55;1.55;;;13.40;99.90;;;;;;4948622;28;20492;-86
2023/08/31 12:41:43;;;;;;;5.88;1.70;;;13.20;99.90;;;;;;4948620;29;20232;-89
2023/08/31 12:44:09;;;;;;;2.13;1.15;;;13.10;99.90;;;;;;4945052;29;20031;-85
2023/08/31 12:46:35;;;;;;;2.15;1.60;;;13.10;99.90;;;;;;4941712;29;20327;-91
2023/08/31 12:49:02;;;;;;;3.92;1.30;;;13.20;99.90;;;;;;4948097;28;20030;-92